createdAt,value
2022-12-03T00:02:34.295Z,86.67
2022-12-03T00:05:56.386Z,86.81
2022-12-03T00:09:18.445Z,86.52
2022-12-03T00:12:42.499Z,86.69
2022-12-03T00:16:04.275Z,86.75
2022-12-03T00:19:26.357Z,86.55
2022-12-03T00:22:48.675Z,86.63
2022-12-03T00:26:10.856Z,86.67
2022-12-03T00:29:34.642Z,86.48
2022-12-03T00:32:56.444Z,87.01
2022-12-03T00:36:18.274Z,86.55
2022-12-03T00:39:40.115Z,86.69
2022-12-03T00:43:05.587Z,87.11
2022-12-03T00:46:29.479Z,87.18
2022-12-03T00:49:51.871Z,86.97
2022-12-03T00:53:13.898Z,87.23
2022-12-03T00:56:35.900Z,87.01
2022-12-03T00:59:57.567Z,87.47
2022-12-03T01:03:20.976Z,87.01
2022-12-03T01:06:43.044Z,87.00
2022-12-03T01:10:05.528Z,87.20
2022-12-03T01:13:27.467Z,86.97
2022-12-03T01:16:49.810Z,87.68
2022-12-03T01:20:14.111Z,87.51
2022-12-03T01:23:35.963Z,87.02
2022-12-03T01:26:58.128Z,87.11
2022-12-03T01:30:20.496Z,87.38
2022-12-03T01:33:41.231Z,86.91
2022-12-03T01:37:04.801Z,86.82
2022-12-03T01:40:27.024Z,86.79
2022-12-03T01:43:50.216Z,87.12
2022-12-03T01:47:15.159Z,86.79
2022-12-03T01:50:37.081Z,87.29
2022-12-03T01:54:02.190Z,87.02
2022-12-03T01:57:28.324Z,87.58
2022-12-03T02:00:50.190Z,87.75
2022-12-03T02:04:15.356Z,86.88
2022-12-03T02:07:37.232Z,87.04
2022-12-03T02:11:06.503Z,87.17
2022-12-03T02:14:28.357Z,86.86
2022-12-03T02:17:50.391Z,87.37
2022-12-03T02:21:18.400Z,87.33
2022-12-03T02:24:47.659Z,87.55
2022-12-03T02:28:11.626Z,86.90
2022-12-03T02:31:33.704Z,87.48
2022-12-03T02:34:55.959Z,87.36
2022-12-03T02:38:21.515Z,86.95
2022-12-03T02:42:01.352Z,87.28
2022-12-03T02:45:28.950Z,87.19
2022-12-03T02:48:50.822Z,87.59
2022-12-03T02:52:13.219Z,87.05
2022-12-03T02:55:37.517Z,87.05
2022-12-03T02:59:04.459Z,87.36
2022-12-03T03:02:28.525Z,87.26
2022-12-03T03:05:51.616Z,86.98
2022-12-03T03:09:13.917Z,87.34
2022-12-03T03:12:39.397Z,86.69
2022-12-03T03:16:03.613Z,86.85
2022-12-03T03:19:27.760Z,87.27
2022-12-03T03:22:49.569Z,86.73
2022-12-03T03:26:14.603Z,86.71
2022-12-03T03:29:36.795Z,86.90
2022-12-03T03:32:58.973Z,87.33
2022-12-03T03:36:23.499Z,86.93
2022-12-03T03:39:45.362Z,86.23
2022-12-03T03:43:08.431Z,86.42
2022-12-03T03:46:33.400Z,86.04
2022-12-03T03:49:55.901Z,86.13
2022-12-03T03:53:19.790Z,86.58
2022-12-03T03:56:42.284Z,86.21
2022-12-03T04:00:06.107Z,86.15
2022-12-03T04:03:29.241Z,85.95
2022-12-03T04:06:51.857Z,85.99
2022-12-03T04:10:33.172Z,86.15
2022-12-03T04:13:55.217Z,86.31
2022-12-03T04:17:17.418Z,85.96
2022-12-03T04:20:39.456Z,86.47
2022-12-03T04:24:00.969Z,86.52
2022-12-03T04:27:41.852Z,86.25
2022-12-03T04:31:24.234Z,86.93
2022-12-03T04:35:03.770Z,86.92
2022-12-03T04:38:25.723Z,87.02
2022-12-03T04:41:47.425Z,86.58
2022-12-03T04:45:11.553Z,86.94
2022-12-03T04:48:33.324Z,86.16
2022-12-03T04:51:55.381Z,86.87
2022-12-03T04:55:17.463Z,86.57
2022-12-03T04:58:39.672Z,86.16
2022-12-03T05:02:03.426Z,85.85
2022-12-03T05:05:25.563Z,86.95
2022-12-03T05:08:47.581Z,86.02
2022-12-03T05:12:09.417Z,86.38
2022-12-03T05:15:31.162Z,87.00
2022-12-03T05:18:54.628Z,86.82
2022-12-03T05:22:16.475Z,86.37
2022-12-03T05:25:38.692Z,86.60
2022-12-03T05:29:00.993Z,85.54
2022-12-03T05:32:23.050Z,85.45
2022-12-03T05:35:46.257Z,86.09
2022-12-03T05:39:08.091Z,85.80
2022-12-03T05:42:47.572Z,86.26
2022-12-03T05:46:09.378Z,86.60
2022-12-03T05:49:31.355Z,85.87
2022-12-03T05:52:54.818Z,86.86
2022-12-03T05:56:16.524Z,86.90
2022-12-03T05:59:38.545Z,86.90
2022-12-03T06:03:00.578Z,87.04
2022-12-03T06:06:22.495Z,88.07
2022-12-03T06:09:46.139Z,87.31
2022-12-03T06:13:07.977Z,87.82
2022-12-03T06:16:30.205Z,87.24
2022-12-03T06:19:52.310Z,88.21
2022-12-03T06:23:13.881Z,87.67
2022-12-03T06:26:37.050Z,87.12
2022-12-03T06:29:58.827Z,88.19
2022-12-03T06:33:20.916Z,87.55
2022-12-03T06:36:43.048Z,88.13
2022-12-03T06:40:05.168Z,88.43
2022-12-03T06:43:28.714Z,87.23
2022-12-03T06:46:51.049Z,87.68
2022-12-03T06:50:13.891Z,88.17
2022-12-03T06:53:36.140Z,88.81
2022-12-03T06:56:58.055Z,88.73
2022-12-03T07:00:25.538Z,87.37
2022-12-03T07:03:48.321Z,88.32
2022-12-03T07:07:10.112Z,87.30
2022-12-03T07:10:32.085Z,86.97
2022-12-03T07:13:54.164Z,86.36
2022-12-03T07:17:17.390Z,87.46
2022-12-03T07:20:39.628Z,86.78
2022-12-03T07:24:01.708Z,86.83
2022-12-03T07:27:23.405Z,87.67
2022-12-03T07:30:45.144Z,87.50
2022-12-03T07:34:08.339Z,87.51
2022-12-03T07:37:30.134Z,86.30
2022-12-03T07:40:52.143Z,86.70
2022-12-03T07:44:15.026Z,87.32
2022-12-03T07:47:36.945Z,86.86
2022-12-03T07:51:00.561Z,87.57
2022-12-03T07:54:26.188Z,86.47
2022-12-03T07:57:48.418Z,86.85
2022-12-03T08:01:11.522Z,86.12
2022-12-03T08:04:33.338Z,86.19
2022-12-03T08:07:57.165Z,86.38
2022-12-03T08:11:20.121Z,85.33
2022-12-03T08:14:42.080Z,85.73
2022-12-03T08:18:09.635Z,85.28
2022-12-03T08:21:37.622Z,85.85
2022-12-03T08:25:01.179Z,86.28
2022-12-03T08:28:25.977Z,85.03
2022-12-03T08:31:52.230Z,84.85
2022-12-03T08:35:16.395Z,84.97
2022-12-03T08:38:38.503Z,84.85
2022-12-03T08:42:32.190Z,85.01
2022-12-03T08:45:56.183Z,85.94
2022-12-03T08:49:19.426Z,85.93
2022-12-03T08:52:41.279Z,85.74
2022-12-03T08:56:06.164Z,85.95
2022-12-03T08:59:30.869Z,85.61
2022-12-03T09:02:54.988Z,85.44
2022-12-03T09:06:17.285Z,84.91
2022-12-03T09:09:38.806Z,84.06
2022-12-03T09:13:00.886Z,85.02
2022-12-03T09:16:24.487Z,84.10
2022-12-03T09:19:46.573Z,84.34
2022-12-03T09:23:08.699Z,84.55
2022-12-03T09:26:33.227Z,83.45
2022-12-03T09:29:55.379Z,82.91
2022-12-03T09:33:19.152Z,83.13
2022-12-03T09:36:43.165Z,82.31
2022-12-03T09:40:05.489Z,82.21
2022-12-03T09:43:49.448Z,83.04
2022-12-03T09:47:11.472Z,82.73
2022-12-03T09:50:35.864Z,83.36
2022-12-03T09:54:00.089Z,83.23
2022-12-03T09:57:22.269Z,83.12
2022-12-03T10:00:48.171Z,82.79
2022-12-03T10:04:10.608Z,81.77
2022-12-03T10:07:34.051Z,82.11
2022-12-03T10:10:57.696Z,82.27
2022-12-03T10:14:21.054Z,81.54
2022-12-03T10:17:43.575Z,81.11
2022-12-03T10:21:05.575Z,81.58
2022-12-03T10:24:30.665Z,81.70
2022-12-03T10:27:59.185Z,81.49
2022-12-03T10:31:21.051Z,81.57
2022-12-03T10:34:44.867Z,81.42
2022-12-03T10:38:08.897Z,82.00
2022-12-03T10:41:32.124Z,81.33
2022-12-03T10:45:09.946Z,82.12
2022-12-03T10:48:31.816Z,82.72
2022-12-03T10:51:53.792Z,81.36
2022-12-03T10:55:16.756Z,81.24
2022-12-03T10:58:41.715Z,81.19
2022-12-03T11:02:05.159Z,81.96
2022-12-03T11:05:28.633Z,81.40
2022-12-03T11:08:57.110Z,81.70
2022-12-03T11:12:22.152Z,82.26
2022-12-03T11:15:46.823Z,82.02
2022-12-03T11:19:17.875Z,82.22
2022-12-03T11:22:44.827Z,81.81
2022-12-03T11:26:06.794Z,82.01
2022-12-03T11:29:51.187Z,81.84
2022-12-03T11:33:25.004Z,81.75
2022-12-03T11:37:20.504Z,82.32
2022-12-03T11:41:08.913Z,80.87
2022-12-03T11:44:36.943Z,80.92
2022-12-03T11:48:12.947Z,80.74
2022-12-03T11:51:36.449Z,80.18
2022-12-03T11:55:02.941Z,80.34
2022-12-03T11:58:28.143Z,81.37
2022-12-03T12:01:49.820Z,82.09
2022-12-03T12:05:28.590Z,82.19
2022-12-03T12:09:00.309Z,82.11
2022-12-03T12:12:29.527Z,82.40
2022-12-03T12:15:51.486Z,82.78
2022-12-03T12:19:33.833Z,82.50
2022-12-03T12:22:56.485Z,83.20
2022-12-03T12:26:20.248Z,83.37
2022-12-03T12:29:44.247Z,83.23
2022-12-03T12:33:25.770Z,83.96
2022-12-03T12:36:48.171Z,84.23
2022-12-03T12:40:19.125Z,83.57
2022-12-03T12:43:42.613Z,84.51
2022-12-03T12:47:13.932Z,84.14
2022-12-03T12:50:36.296Z,84.44
2022-12-03T12:53:58.943Z,84.83
2022-12-03T12:57:24.821Z,84.97
2022-12-03T13:00:51.916Z,85.63
2022-12-03T13:04:16.531Z,85.86
2022-12-03T13:07:39.337Z,86.09
2022-12-03T13:11:02.878Z,86.21
2022-12-03T13:14:26.386Z,85.61
2022-12-03T13:17:50.183Z,86.31
2022-12-03T13:21:22.892Z,86.59
2022-12-03T13:24:47.800Z,86.81
2022-12-03T13:28:09.904Z,86.94
2022-12-03T13:31:43.484Z,86.19
2022-12-03T13:35:16.268Z,87.34
2022-12-03T13:38:38.571Z,86.63
2022-12-03T13:42:31.472Z,86.98
2022-12-03T13:45:55.504Z,87.40
2022-12-03T13:49:22.923Z,86.66
2022-12-03T13:52:46.232Z,87.25
2022-12-03T13:56:27.448Z,87.59
2022-12-03T13:59:49.468Z,87.63
2022-12-03T14:03:11.158Z,87.40
2022-12-03T14:06:33.924Z,87.18
2022-12-03T14:09:57.645Z,87.17
2022-12-03T14:13:19.820Z,87.12
2022-12-03T14:16:42.950Z,86.69
2022-12-03T14:20:05.997Z,85.71
2022-12-03T14:23:28.189Z,84.94
2022-12-03T14:26:51.897Z,85.06
2022-12-03T14:30:14.744Z,84.56
2022-12-03T14:33:36.519Z,85.52
2022-12-03T14:36:58.962Z,85.27
2022-12-03T14:40:23.283Z,85.81
2022-12-03T14:43:46.453Z,84.92
2022-12-03T14:47:08.587Z,84.99
2022-12-03T14:50:30.765Z,84.81
2022-12-03T14:53:52.636Z,85.99
2022-12-03T14:57:16.861Z,86.17
2022-12-03T15:00:40.417Z,86.05
2022-12-03T15:04:02.312Z,86.17
2022-12-03T15:07:24.261Z,86.18
2022-12-03T15:10:46.572Z,86.67
2022-12-03T15:14:09.954Z,87.18
2022-12-03T15:17:33.851Z,87.24
2022-12-03T15:20:55.891Z,86.71
2022-12-03T15:24:18.047Z,86.91
2022-12-03T15:27:41.626Z,87.18
2022-12-03T15:31:03.562Z,87.57
2022-12-03T15:34:26.970Z,87.59
2022-12-03T15:37:48.890Z,87.50
2022-12-03T15:41:24.698Z,87.53
2022-12-03T15:44:46.447Z,88.08
2022-12-03T15:48:08.591Z,87.55
2022-12-03T15:51:32.102Z,87.44
2022-12-03T15:54:55.305Z,87.49
2022-12-03T15:58:17.151Z,87.93
2022-12-03T16:01:38.975Z,87.79
2022-12-03T16:05:01.142Z,89.06
2022-12-03T16:08:24.516Z,89.33
2022-12-03T16:11:46.288Z,89.16
2022-12-03T16:15:09.196Z,89.83
2022-12-03T16:18:32.237Z,89.50
2022-12-03T16:21:54.352Z,88.81
2022-12-03T16:25:17.388Z,90.07
2022-12-03T16:28:39.612Z,89.55
2022-12-03T16:32:02.092Z,90.33
2022-12-03T16:35:24.036Z,89.91
2022-12-03T16:38:46.012Z,90.44
2022-12-03T16:42:16.203Z,90.35
2022-12-03T16:46:02.369Z,90.29
2022-12-03T16:49:24.124Z,90.18
2022-12-03T16:52:47.747Z,90.35
2022-12-03T16:56:10.054Z,90.31
2022-12-03T16:59:33.316Z,90.54
2022-12-03T17:02:55.409Z,90.67
2022-12-03T17:06:17.399Z,90.43
2022-12-03T17:09:40.027Z,90.47
2022-12-03T17:13:09.224Z,90.60
2022-12-03T17:16:33.671Z,90.64
2022-12-03T17:19:55.717Z,90.43
2022-12-03T17:23:18.014Z,90.57
2022-12-03T17:26:41.946Z,90.82
2022-12-03T17:30:06.432Z,90.82
2022-12-03T17:33:29.608Z,90.83
2022-12-03T17:36:51.738Z,90.83
2022-12-03T17:40:15.590Z,91.08
2022-12-03T17:43:37.639Z,91.19
2022-12-03T17:46:59.698Z,91.28
2022-12-03T17:50:23.332Z,91.73
2022-12-03T17:53:45.178Z,91.65
2022-12-03T17:57:06.862Z,91.14
2022-12-03T18:00:29.530Z,91.65
2022-12-03T18:03:51.684Z,91.45
2022-12-03T18:07:15.056Z,91.31
2022-12-03T18:10:37.447Z,91.70
2022-12-03T18:14:01.562Z,91.22
2022-12-03T18:17:23.429Z,91.14
2022-12-03T18:20:45.645Z,91.47
2022-12-03T18:24:09.696Z,91.43
2022-12-03T18:27:31.660Z,91.17
2022-12-03T18:30:54.246Z,91.15
2022-12-03T18:34:16.028Z,91.68
2022-12-03T18:37:38.528Z,91.69
2022-12-03T18:41:05.602Z,91.52
2022-12-03T18:44:28.991Z,91.58
2022-12-03T18:47:51.113Z,92.22
2022-12-03T18:51:18.719Z,91.87
2022-12-03T18:54:41.856Z,92.08
2022-12-03T18:58:06.042Z,92.23
2022-12-03T19:01:28.329Z,92.29
2022-12-03T19:04:51.310Z,92.33
2022-12-03T19:08:15.345Z,92.32
2022-12-03T19:11:38.126Z,92.41
2022-12-03T19:15:01.471Z,92.71
2022-12-03T19:18:24.013Z,92.68
2022-12-03T19:21:46.059Z,92.89
2022-12-03T19:25:08.252Z,92.67
2022-12-03T19:28:30.748Z,92.32
2022-12-03T19:31:54.391Z,92.34
2022-12-03T19:35:16.476Z,92.05
2022-12-03T19:38:39.047Z,92.54
2022-12-03T19:42:00.926Z,92.32
2022-12-03T19:45:23.125Z,92.48
2022-12-03T19:48:46.584Z,92.65
2022-12-03T19:52:08.575Z,92.70
2022-12-03T19:55:30.733Z,92.61
2022-12-03T19:58:56.697Z,93.35
2022-12-03T20:02:18.878Z,92.80
2022-12-03T20:05:42.477Z,93.00
2022-12-03T20:09:07.702Z,92.61
2022-12-03T20:12:29.468Z,92.13
2022-12-03T20:15:51.588Z,92.25
2022-12-03T20:19:18.536Z,92.48
2022-12-03T20:22:42.008Z,92.77
2022-12-03T20:26:04.033Z,93.07
2022-12-03T20:29:26.042Z,93.45
2022-12-03T20:32:48.280Z,93.57
2022-12-03T20:36:12.266Z,93.21
2022-12-03T20:39:35.789Z,92.95
2022-12-03T20:42:57.574Z,93.20
2022-12-03T20:46:22.007Z,92.78
2022-12-03T20:49:44.051Z,93.41
2022-12-03T20:53:23.872Z,93.40
2022-12-03T20:56:48.043Z,93.16
2022-12-03T21:00:10.595Z,93.65
2022-12-03T21:03:33.095Z,93.45
2022-12-03T21:06:55.270Z,93.55
2022-12-03T21:10:31.243Z,93.31
2022-12-03T21:13:55.485Z,93.45
2022-12-03T21:17:17.309Z,92.69
2022-12-03T21:20:42.849Z,93.28
2022-12-03T21:24:05.323Z,93.16
2022-12-03T21:27:30.435Z,93.09
2022-12-03T21:30:53.490Z,92.31
2022-12-03T21:34:15.779Z,93.01
2022-12-03T21:37:37.665Z,92.32
2022-12-03T21:41:00.272Z,92.24
2022-12-03T21:44:22.179Z,92.22
2022-12-03T21:47:48.335Z,92.52
2022-12-03T21:51:12.946Z,92.04
2022-12-03T21:54:35.029Z,92.81
2022-12-03T21:58:05.592Z,92.22
2022-12-03T22:01:27.677Z,92.31
2022-12-03T22:04:52.484Z,92.12
2022-12-03T22:08:14.744Z,91.74
2022-12-03T22:11:36.955Z,91.82
2022-12-03T22:14:59.246Z,91.95
2022-12-03T22:18:21.532Z,91.59
2022-12-03T22:21:45.056Z,91.87
2022-12-03T22:25:07.225Z,91.48
2022-12-03T22:28:29.076Z,91.43
2022-12-03T22:31:51.207Z,91.46
2022-12-03T22:35:13.262Z,91.99
2022-12-03T22:38:36.791Z,91.29
2022-12-03T22:41:58.400Z,91.71
2022-12-03T22:45:20.036Z,91.65
2022-12-03T22:48:42.599Z,91.53
2022-12-03T22:52:04.518Z,91.59
2022-12-03T22:55:28.217Z,91.70
2022-12-03T22:58:51.884Z,91.37
2022-12-03T23:02:13.560Z,91.78
2022-12-03T23:05:37.077Z,91.37
2022-12-03T23:09:00.190Z,91.62
2022-12-03T23:12:23.581Z,91.27
2022-12-03T23:15:46.890Z,91.62
2022-12-03T23:19:09.007Z,91.43
2022-12-03T23:22:31.281Z,91.58
2022-12-03T23:25:58.693Z,91.38
2022-12-03T23:29:21.856Z,91.63
2022-12-03T23:32:44.552Z,91.35
2022-12-03T23:36:09.188Z,91.29
2022-12-03T23:39:30.860Z,91.19
2022-12-03T23:42:52.995Z,91.31
2022-12-03T23:46:18.630Z,91.17
2022-12-03T23:49:40.522Z,91.12
2022-12-03T23:53:02.669Z,91.29
2022-12-03T23:56:26.789Z,91.10
2022-12-03T23:59:50.513Z,91.45
